sensor_id;sensor_type;location;lat;lon;timestamp;P1;durP1;ratioP1;P2;durP2;ratioP2
77948;SDS011;67146;51.236;-0.336;2023-02-28T00:00:42;2.63;;;0.20;;
77948;SDS011;67146;51.236;-0.336;2023-02-28T00:03:08;3.67;;;0.30;;
77948;SDS011;67146;51.236;-0.336;2023-02-28T00:05:33;4.65;;;0.60;;
77948;SDS011;67146;51.236;-0.336;2023-02-28T00:07:59;3.65;;;0.30;;
77948;SDS011;67146;51.236;-0.336;2023-02-28T00:10:25;4.75;;;0.88;;
77948;SDS011;67146;51.236;-0.336;2023-02-28T00:12:53;3.38;;;0.52;;
77948;SDS011;67146;51.236;-0.336;2023-02-28T00:15:21;3.30;;;0.30;;
77948;SDS011;67146;51.236;-0.336;2023-02-28T00:17:48;3.67;;;0.82;;
77948;SDS011;67146;51.236;-0.336;2023-02-28T00:20:13;2.47;;;0.20;;
77948;SDS011;67146;51.236;-0.336;2023-02-28T00:22:39;4.93;;;0.30;;
77948;SDS011;67146;51.236;-0.336;2023-02-28T00:25:06;4.60;;;0.50;;
77948;SDS011;67146;51.236;-0.336;2023-02-28T00:27:33;3.25;;;0.20;;
77948;SDS011;67146;51.236;-0.336;2023-02-28T00:30:00;3.85;;;0.25;;
77948;SDS011;67146;51.236;-0.336;2023-02-28T00:32:26;3.70;;;0.40;;
77948;SDS011;67146;51.236;-0.336;2023-02-28T00:34:51;5.40;;;0.50;;
77948;SDS011;67146;51.236;-0.336;2023-02-28T00:37:16;4.57;;;0.90;;
77948;SDS011;67146;51.236;-0.336;2023-02-28T00:39:42;3.80;;;0.30;;
77948;SDS011;67146;51.236;-0.336;2023-02-28T00:42:08;4.68;;;0.60;;
77948;SDS011;67146;51.236;-0.336;2023-02-28T00:44:33;6.22;;;1.17;;
77948;SDS011;67146;51.236;-0.336;2023-02-28T00:46:58;4.13;;;0.80;;
77948;SDS011;67146;51.236;-0.336;2023-02-28T00:49:25;2.75;;;0.40;;
77948;SDS011;67146;51.236;-0.336;2023-02-28T00:51:51;4.40;;;1.00;;
77948;SDS011;67146;51.236;-0.336;2023-02-28T00:54:17;3.85;;;0.47;;
77948;SDS011;67146;51.236;-0.336;2023-02-28T00:56:43;3.58;;;0.32;;
77948;SDS011;67146;51.236;-0.336;2023-02-28T00:59:08;3.47;;;0.20;;
77948;SDS011;67146;51.236;-0.336;2023-02-28T01:01:34;5.30;;;0.95;;
77948;SDS011;67146;51.236;-0.336;2023-02-28T01:03:59;3.38;;;0.30;;
77948;SDS011;67146;51.236;-0.336;2023-02-28T01:06:25;4.05;;;0.40;;
77948;SDS011;67146;51.236;-0.336;2023-02-28T01:08:50;4.57;;;0.50;;
77948;SDS011;67146;51.236;-0.336;2023-02-28T01:11:16;3.75;;;0.45;;
77948;SDS011;67146;51.236;-0.336;2023-02-28T01:13:42;4.57;;;0.55;;
77948;SDS011;67146;51.236;-0.336;2023-02-28T01:16:08;10.15;;;0.65;;
77948;SDS011;67146;51.236;-0.336;2023-02-28T01:18:34;4.07;;;0.50;;
77948;SDS011;67146;51.236;-0.336;2023-02-28T01:21:07;8.30;;;0.60;;
77948;SDS011;67146;51.236;-0.336;2023-02-28T01:23:34;6.47;;;0.57;;
77948;SDS011;67146;51.236;-0.336;2023-02-28T01:26:03;3.00;;;0.28;;
77948;SDS011;67146;51.236;-0.336;2023-02-28T01:28:45;3.28;;;0.60;;
77948;SDS011;67146;51.236;-0.336;2023-02-28T01:31:11;4.25;;;0.70;;
77948;SDS011;67146;51.236;-0.336;2023-02-28T01:33:37;4.53;;;0.60;;
77948;SDS011;67146;51.236;-0.336;2023-02-28T01:36:04;5.05;;;0.30;;
77948;SDS011;67146;51.236;-0.336;2023-02-28T01:38:31;3.63;;;0.30;;
77948;SDS011;67146;51.236;-0.336;2023-02-28T01:40:57;4.30;;;0.55;;
77948;SDS011;67146;51.236;-0.336;2023-02-28T01:43:24;4.22;;;0.40;;
77948;SDS011;67146;51.236;-0.336;2023-02-28T01:45:54;3.67;;;0.45;;
77948;SDS011;67146;51.236;-0.336;2023-02-28T01:48:25;5.28;;;0.70;;
77948;SDS011;67146;51.236;-0.336;2023-02-28T01:50:52;4.60;;;0.68;;
77948;SDS011;67146;51.236;-0.336;2023-02-28T01:53:21;4.90;;;1.17;;
77948;SDS011;67146;51.236;-0.336;2023-02-28T01:55:50;6.53;;;0.90;;
77948;SDS011;67146;51.236;-0.336;2023-02-28T01:58:16;7.47;;;0.98;;
77948;SDS011;67146;51.236;-0.336;2023-02-28T02:00:42;6.75;;;1.02;;
77948;SDS011;67146;51.236;-0.336;2023-02-28T02:03:08;5.57;;;0.97;;
77948;SDS011;67146;51.236;-0.336;2023-02-28T02:05:37;7.90;;;1.00;;
77948;SDS011;67146;51.236;-0.336;2023-02-28T02:08:04;6.05;;;1.10;;
77948;SDS011;67146;51.236;-0.336;2023-02-28T02:38:39;4.03;;;0.70;;
77948;SDS011;67146;51.236;-0.336;2023-02-28T02:44:14;5.93;;;1.08;;
77948;SDS011;67146;51.236;-0.336;2023-02-28T02:46:46;10.68;;;1.20;;
77948;SDS011;67146;51.236;-0.336;2023-02-28T02:49:18;6.32;;;0.73;;
77948;SDS011;67146;51.236;-0.336;2023-02-28T02:51:47;7.97;;;1.30;;
77948;SDS011;67146;51.236;-0.336;2023-02-28T02:54:23;6.88;;;1.13;;
77948;SDS011;67146;51.236;-0.336;2023-02-28T02:56:53;8.93;;;1.17;;
77948;SDS011;67146;51.236;-0.336;2023-02-28T02:59:21;9.85;;;1.83;;
77948;SDS011;67146;51.236;-0.336;2023-02-28T03:01:49;7.28;;;1.23;;
77948;SDS011;67146;51.236;-0.336;2023-02-28T03:04:17;10.18;;;2.17;;
77948;SDS011;67146;51.236;-0.336;2023-02-28T03:06:44;10.10;;;1.70;;
77948;SDS011;67146;51.236;-0.336;2023-02-28T03:09:10;10.00;;;1.50;;
77948;SDS011;67146;51.236;-0.336;2023-02-28T03:11:35;6.53;;;1.33;;
77948;SDS011;67146;51.236;-0.336;2023-02-28T03:14:46;10.10;;;2.08;;
77948;SDS011;67146;51.236;-0.336;2023-02-28T03:22:37;10.82;;;1.55;;
77948;SDS011;67146;51.236;-0.336;2023-02-28T03:33:21;11.82;;;2.03;;
77948;SDS011;67146;51.236;-0.336;2023-02-28T03:36:04;9.93;;;2.05;;
77948;SDS011;67146;51.236;-0.336;2023-02-28T03:38:43;10.25;;;1.75;;
77948;SDS011;67146;51.236;-0.336;2023-02-28T03:41:16;9.65;;;2.05;;
77948;SDS011;67146;51.236;-0.336;2023-02-28T03:44:45;8.13;;;2.10;;
77948;SDS011;67146;51.236;-0.336;2023-02-28T03:46:41;8.50;;;1.65;;
77948;SDS011;67146;51.236;-0.336;2023-02-28T03:49:19;8.77;;;1.98;;
77948;SDS011;67146;51.236;-0.336;2023-02-28T03:51:47;9.15;;;2.50;;
77948;SDS011;67146;51.236;-0.336;2023-02-28T03:54:22;11.52;;;2.42;;
77948;SDS011;67146;51.236;-0.336;2023-02-28T03:56:55;10.88;;;2.35;;
77948;SDS011;67146;51.236;-0.336;2023-02-28T03:59:27;9.15;;;2.50;;
77948;SDS011;67146;51.236;-0.336;2023-02-28T04:01:53;11.13;;;2.67;;
77948;SDS011;67146;51.236;-0.336;2023-02-28T04:04:20;12.25;;;2.42;;
77948;SDS011;67146;51.236;-0.336;2023-02-28T04:06:45;7.90;;;2.28;;
77948;SDS011;67146;51.236;-0.336;2023-02-28T04:09:14;10.00;;;1.98;;
77948;SDS011;67146;51.236;-0.336;2023-02-28T04:11:41;12.95;;;2.60;;
77948;SDS011;67146;51.236;-0.336;2023-02-28T04:14:08;11.35;;;2.83;;
77948;SDS011;67146;51.236;-0.336;2023-02-28T04:16:35;9.02;;;2.45;;
77948;SDS011;67146;51.236;-0.336;2023-02-28T04:19:05;8.70;;;2.70;;
77948;SDS011;67146;51.236;-0.336;2023-02-28T04:21:35;12.50;;;2.47;;
77948;SDS011;67146;51.236;-0.336;2023-02-28T04:24:02;9.05;;;2.55;;
77948;SDS011;67146;51.236;-0.336;2023-02-28T04:26:32;9.63;;;2.80;;
77948;SDS011;67146;51.236;-0.336;2023-02-28T04:28:58;10.20;;;2.53;;
77948;SDS011;67146;51.236;-0.336;2023-02-28T04:31:24;12.10;;;2.78;;
77948;SDS011;67146;51.236;-0.336;2023-02-28T04:33:49;10.57;;;3.05;;
77948;SDS011;67146;51.236;-0.336;2023-02-28T04:36:14;11.17;;;2.53;;
77948;SDS011;67146;51.236;-0.336;2023-02-28T04:38:42;10.27;;;3.03;;
77948;SDS011;67146;51.236;-0.336;2023-02-28T04:41:08;10.43;;;2.35;;
77948;SDS011;67146;51.236;-0.336;2023-02-28T04:43:33;8.87;;;2.90;;
77948;SDS011;67146;51.236;-0.336;2023-02-28T04:46:01;9.50;;;1.63;;
77948;SDS011;67146;51.236;-0.336;2023-02-28T04:48:28;13.43;;;2.70;;
77948;SDS011;67146;51.236;-0.336;2023-02-28T04:50:54;10.52;;;3.17;;
77948;SDS011;67146;51.236;-0.336;2023-02-28T04:53:20;10.40;;;2.58;;
77948;SDS011;67146;51.236;-0.336;2023-02-28T04:55:45;20.92;;;3.40;;
77948;SDS011;67146;51.236;-0.336;2023-02-28T04:58:11;11.93;;;3.75;;
77948;SDS011;67146;51.236;-0.336;2023-02-28T05:00:37;17.00;;;3.50;;
77948;SDS011;67146;51.236;-0.336;2023-02-28T05:03:03;17.77;;;4.50;;
77948;SDS011;67146;51.236;-0.336;2023-02-28T05:05:28;11.25;;;2.90;;
77948;SDS011;67146;51.236;-0.336;2023-02-28T05:07:54;9.95;;;3.38;;
77948;SDS011;67146;51.236;-0.336;2023-02-28T05:10:20;9.73;;;2.92;;
77948;SDS011;67146;51.236;-0.336;2023-02-28T05:12:46;14.82;;;4.00;;
77948;SDS011;67146;51.236;-0.336;2023-02-28T05:15:13;11.88;;;3.22;;
77948;SDS011;67146;51.236;-0.336;2023-02-28T05:17:39;11.60;;;3.10;;
77948;SDS011;67146;51.236;-0.336;2023-02-28T05:20:04;15.33;;;4.03;;
77948;SDS011;67146;51.236;-0.336;2023-02-28T05:22:30;12.63;;;3.88;;
77948;SDS011;67146;51.236;-0.336;2023-02-28T05:24:56;11.05;;;3.45;;
77948;SDS011;67146;51.236;-0.336;2023-02-28T05:27:21;13.27;;;2.97;;
77948;SDS011;67146;51.236;-0.336;2023-02-28T05:29:46;13.90;;;3.43;;
77948;SDS011;67146;51.236;-0.336;2023-02-28T05:32:12;14.70;;;3.53;;
77948;SDS011;67146;51.236;-0.336;2023-02-28T05:34:38;14.20;;;2.80;;
77948;SDS011;67146;51.236;-0.336;2023-02-28T05:37:04;11.27;;;2.53;;
77948;SDS011;67146;51.236;-0.336;2023-02-28T05:39:30;12.93;;;2.97;;
77948;SDS011;67146;51.236;-0.336;2023-02-28T05:41:55;12.18;;;3.20;;
77948;SDS011;67146;51.236;-0.336;2023-02-28T05:44:20;10.97;;;3.27;;
77948;SDS011;67146;51.236;-0.336;2023-02-28T05:46:46;19.00;;;3.60;;
77948;SDS011;67146;51.236;-0.336;2023-02-28T05:49:11;11.60;;;3.03;;
77948;SDS011;67146;51.236;-0.336;2023-02-28T05:51:36;12.13;;;4.63;;
77948;SDS011;67146;51.236;-0.336;2023-02-28T05:54:04;12.60;;;5.10;;
77948;SDS011;67146;51.236;-0.336;2023-02-28T05:56:31;16.50;;;3.42;;
77948;SDS011;67146;51.236;-0.336;2023-02-28T05:58:56;11.98;;;3.92;;
77948;SDS011;67146;51.236;-0.336;2023-02-28T06:01:23;13.70;;;3.67;;
77948;SDS011;67146;51.236;-0.336;2023-02-28T06:03:49;11.88;;;3.25;;
77948;SDS011;67146;51.236;-0.336;2023-02-28T06:06:14;15.02;;;4.55;;
77948;SDS011;67146;51.236;-0.336;2023-02-28T06:08:40;15.40;;;3.47;;
77948;SDS011;67146;51.236;-0.336;2023-02-28T06:11:05;13.10;;;4.17;;
77948;SDS011;67146;51.236;-0.336;2023-02-28T06:13:31;13.23;;;3.80;;
77948;SDS011;67146;51.236;-0.336;2023-02-28T06:16:00;11.43;;;3.60;;
77948;SDS011;67146;51.236;-0.336;2023-02-28T06:18:25;16.67;;;4.30;;
77948;SDS011;67146;51.236;-0.336;2023-02-28T06:20:54;14.00;;;3.97;;
77948;SDS011;67146;51.236;-0.336;2023-02-28T06:23:20;13.95;;;4.32;;
77948;SDS011;67146;51.236;-0.336;2023-02-28T06:25:46;13.25;;;4.43;;
77948;SDS011;67146;51.236;-0.336;2023-02-28T06:28:11;14.45;;;4.80;;
77948;SDS011;67146;51.236;-0.336;2023-02-28T06:30:37;15.77;;;4.40;;
77948;SDS011;67146;51.236;-0.336;2023-02-28T06:33:03;14.77;;;4.05;;
77948;SDS011;67146;51.236;-0.336;2023-02-28T06:35:28;14.43;;;4.90;;
77948;SDS011;67146;51.236;-0.336;2023-02-28T06:37:54;15.88;;;4.57;;
77948;SDS011;67146;51.236;-0.336;2023-02-28T06:40:20;17.13;;;4.82;;
77948;SDS011;67146;51.236;-0.336;2023-02-28T06:42:45;17.20;;;5.30;;
77948;SDS011;67146;51.236;-0.336;2023-02-28T06:45:10;13.80;;;4.35;;
77948;SDS011;67146;51.236;-0.336;2023-02-28T06:47:40;21.92;;;5.15;;
77948;SDS011;67146;51.236;-0.336;2023-02-28T06:50:07;19.08;;;5.38;;
77948;SDS011;67146;51.236;-0.336;2023-02-28T06:52:34;24.95;;;4.85;;
77948;SDS011;67146;51.236;-0.336;2023-02-28T06:55:02;16.55;;;4.68;;
77948;SDS011;67146;51.236;-0.336;2023-02-28T06:57:29;15.15;;;5.13;;
77948;SDS011;67146;51.236;-0.336;2023-02-28T06:59:58;16.70;;;4.97;;
77948;SDS011;67146;51.236;-0.336;2023-02-28T07:02:24;17.42;;;5.32;;
77948;SDS011;67146;51.236;-0.336;2023-02-28T07:04:50;16.60;;;5.57;;
77948;SDS011;67146;51.236;-0.336;2023-02-28T07:07:15;17.93;;;6.40;;
77948;SDS011;67146;51.236;-0.336;2023-02-28T07:09:40;24.43;;;6.23;;
77948;SDS011;67146;51.236;-0.336;2023-02-28T07:12:06;14.60;;;5.67;;
77948;SDS011;67146;51.236;-0.336;2023-02-28T07:14:31;16.20;;;5.15;;
77948;SDS011;67146;51.236;-0.336;2023-02-28T07:16:56;15.43;;;6.97;;
77948;SDS011;67146;51.236;-0.336;2023-02-28T07:19:22;18.75;;;7.38;;
77948;SDS011;67146;51.236;-0.336;2023-02-28T07:21:47;17.17;;;5.30;;
77948;SDS011;67146;51.236;-0.336;2023-02-28T07:24:12;16.77;;;5.63;;
77948;SDS011;67146;51.236;-0.336;2023-02-28T07:26:40;17.13;;;4.65;;
77948;SDS011;67146;51.236;-0.336;2023-02-28T07:29:06;13.65;;;4.75;;
77948;SDS011;67146;51.236;-0.336;2023-02-28T07:31:31;13.73;;;4.63;;
77948;SDS011;67146;51.236;-0.336;2023-02-28T07:33:56;14.90;;;4.90;;
77948;SDS011;67146;51.236;-0.336;2023-02-28T07:36:22;12.32;;;3.83;;
77948;SDS011;67146;51.236;-0.336;2023-02-28T07:38:47;13.60;;;4.73;;
77948;SDS011;67146;51.236;-0.336;2023-02-28T07:41:18;13.90;;;4.03;;
77948;SDS011;67146;51.236;-0.336;2023-02-28T07:43:45;13.18;;;4.35;;
77948;SDS011;67146;51.236;-0.336;2023-02-28T07:46:11;16.02;;;5.22;;
77948;SDS011;67146;51.236;-0.336;2023-02-28T07:48:39;15.77;;;4.53;;
77948;SDS011;67146;51.236;-0.336;2023-02-28T07:51:06;11.10;;;4.32;;
77948;SDS011;67146;51.236;-0.336;2023-02-28T07:53:32;10.98;;;3.78;;
77948;SDS011;67146;51.236;-0.336;2023-02-28T07:55:57;11.02;;;3.78;;
77948;SDS011;67146;51.236;-0.336;2023-02-28T07:58:24;11.30;;;3.47;;
77948;SDS011;67146;51.236;-0.336;2023-02-28T08:00:50;14.10;;;4.28;;
77948;SDS011;67146;51.236;-0.336;2023-02-28T08:03:16;12.43;;;4.50;;
77948;SDS011;67146;51.236;-0.336;2023-02-28T08:05:42;14.68;;;4.35;;
77948;SDS011;67146;51.236;-0.336;2023-02-28T08:08:08;10.37;;;3.83;;
77948;SDS011;67146;51.236;-0.336;2023-02-28T08:10:33;11.65;;;3.47;;
77948;SDS011;67146;51.236;-0.336;2023-02-28T08:12:59;10.15;;;3.65;;
77948;SDS011;67146;51.236;-0.336;2023-02-28T08:15:25;10.82;;;3.55;;
77948;SDS011;67146;51.236;-0.336;2023-02-28T08:17:50;9.68;;;3.15;;
77948;SDS011;67146;51.236;-0.336;2023-02-28T08:20:15;11.07;;;4.15;;
77948;SDS011;67146;51.236;-0.336;2023-02-28T08:22:41;21.50;;;5.07;;
77948;SDS011;67146;51.236;-0.336;2023-02-28T08:25:06;10.85;;;3.50;;
77948;SDS011;67146;51.236;-0.336;2023-02-28T08:27:32;11.77;;;4.00;;
77948;SDS011;67146;51.236;-0.336;2023-02-28T08:29:58;9.98;;;3.42;;
77948;SDS011;67146;51.236;-0.336;2023-02-28T08:32:23;11.03;;;3.20;;
77948;SDS011;67146;51.236;-0.336;2023-02-28T08:34:48;12.27;;;3.37;;
77948;SDS011;67146;51.236;-0.336;2023-02-28T08:37:14;9.38;;;3.25;;
77948;SDS011;67146;51.236;-0.336;2023-02-28T08:39:39;9.63;;;3.63;;
77948;SDS011;67146;51.236;-0.336;2023-02-28T08:42:05;9.63;;;3.47;;
77948;SDS011;67146;51.236;-0.336;2023-02-28T08:44:30;9.27;;;3.43;;
77948;SDS011;67146;51.236;-0.336;2023-02-28T08:46:55;8.75;;;3.03;;
77948;SDS011;67146;51.236;-0.336;2023-02-28T08:49:20;10.03;;;2.83;;
77948;SDS011;67146;51.236;-0.336;2023-02-28T08:51:46;7.28;;;2.65;;
77948;SDS011;67146;51.236;-0.336;2023-02-28T08:54:11;7.97;;;2.20;;
77948;SDS011;67146;51.236;-0.336;2023-02-28T08:56:38;8.32;;;2.72;;
77948;SDS011;67146;51.236;-0.336;2023-02-28T08:59:03;8.88;;;3.67;;
77948;SDS011;67146;51.236;-0.336;2023-02-28T09:01:29;7.85;;;2.55;;
77948;SDS011;67146;51.236;-0.336;2023-02-28T09:03:55;8.30;;;2.72;;
77948;SDS011;67146;51.236;-0.336;2023-02-28T09:06:22;8.52;;;2.38;;
77948;SDS011;67146;51.236;-0.336;2023-02-28T09:08:49;11.15;;;3.03;;
77948;SDS011;67146;51.236;-0.336;2023-02-28T09:11:14;8.77;;;2.85;;
77948;SDS011;67146;51.236;-0.336;2023-02-28T09:13:40;8.38;;;2.72;;
77948;SDS011;67146;51.236;-0.336;2023-02-28T09:16:07;7.28;;;2.35;;
77948;SDS011;67146;51.236;-0.336;2023-02-28T09:18:34;9.20;;;2.50;;
77948;SDS011;67146;51.236;-0.336;2023-02-28T09:21:03;6.60;;;2.00;;
77948;SDS011;67146;51.236;-0.336;2023-02-28T09:23:29;7.70;;;2.25;;
77948;SDS011;67146;51.236;-0.336;2023-02-28T09:25:55;7.80;;;1.85;;
77948;SDS011;67146;51.236;-0.336;2023-02-28T09:28:20;9.85;;;1.73;;
77948;SDS011;67146;51.236;-0.336;2023-02-28T09:30:47;6.50;;;1.75;;
77948;SDS011;67146;51.236;-0.336;2023-02-28T09:33:17;6.15;;;1.45;;
77948;SDS011;67146;51.236;-0.336;2023-02-28T09:35:45;6.65;;;1.55;;
77948;SDS011;67146;51.236;-0.336;2023-02-28T09:38:11;5.47;;;1.45;;
77948;SDS011;67146;51.236;-0.336;2023-02-28T09:40:38;4.70;;;1.17;;
77948;SDS011;67146;51.236;-0.336;2023-02-28T09:43:09;7.43;;;0.95;;
77948;SDS011;67146;51.236;-0.336;2023-02-28T09:45:39;4.38;;;0.90;;
77948;SDS011;67146;51.236;-0.336;2023-02-28T09:48:20;4.07;;;0.65;;
77948;SDS011;67146;51.236;-0.336;2023-02-28T09:53:43;4.13;;;0.88;;
77948;SDS011;67146;51.236;-0.336;2023-02-28T09:56:15;3.30;;;0.60;;
77948;SDS011;67146;51.236;-0.336;2023-02-28T09:58:52;6.07;;;0.57;;
77948;SDS011;67146;51.236;-0.336;2023-02-28T10:01:46;6.45;;;0.50;;
77948;SDS011;67146;51.236;-0.336;2023-02-28T10:04:43;4.82;;;0.43;;
77948;SDS011;67146;51.236;-0.336;2023-02-28T10:10:17;3.33;;;0.90;;
77948;SDS011;67146;51.236;-0.336;2023-02-28T10:12:53;4.55;;;0.60;;
77948;SDS011;67146;51.236;-0.336;2023-02-28T10:15:21;3.45;;;0.93;;
77948;SDS011;67146;51.236;-0.336;2023-02-28T10:17:48;5.40;;;0.40;;
77948;SDS011;67146;51.236;-0.336;2023-02-28T10:20:19;4.05;;;0.65;;
77948;SDS011;67146;51.236;-0.336;2023-02-28T10:22:50;2.35;;;0.40;;
77948;SDS011;67146;51.236;-0.336;2023-02-28T10:25:37;2.38;;;0.50;;
77948;SDS011;67146;51.236;-0.336;2023-02-28T10:28:10;2.13;;;0.22;;
77948;SDS011;67146;51.236;-0.336;2023-02-28T10:30:37;1.80;;;0.20;;
77948;SDS011;67146;51.236;-0.336;2023-02-28T10:33:05;2.72;;;0.32;;
77948;SDS011;67146;51.236;-0.336;2023-02-28T10:35:33;4.43;;;0.40;;
77948;SDS011;67146;51.236;-0.336;2023-02-28T10:37:59;2.85;;;0.85;;
77948;SDS011;67146;51.236;-0.336;2023-02-28T10:40:28;2.97;;;0.20;;
77948;SDS011;67146;51.236;-0.336;2023-02-28T10:45:24;2.67;;;0.30;;
77948;SDS011;67146;51.236;-0.336;2023-02-28T10:48:01;1.70;;;0.30;;
77948;SDS011;67146;51.236;-0.336;2023-02-28T10:58:58;3.10;;;0.40;;
77948;SDS011;67146;51.236;-0.336;2023-02-28T11:07:04;4.90;;;0.63;;
77948;SDS011;67146;51.236;-0.336;2023-02-28T11:09:34;4.90;;;0.75;;
77948;SDS011;67146;51.236;-0.336;2023-02-28T11:12:05;3.88;;;0.70;;
77948;SDS011;67146;51.236;-0.336;2023-02-28T11:14:51;4.47;;;0.60;;
77948;SDS011;67146;51.236;-0.336;2023-02-28T11:17:23;3.10;;;0.60;;
77948;SDS011;67146;51.236;-0.336;2023-02-28T11:19:52;5.90;;;1.58;;
77948;SDS011;67146;51.236;-0.336;2023-02-28T11:22:19;3.67;;;0.40;;
77948;SDS011;67146;51.236;-0.336;2023-02-28T11:24:48;3.45;;;0.38;;
77948;SDS011;67146;51.236;-0.336;2023-02-28T11:29:58;3.10;;;0.40;;
77948;SDS011;67146;51.236;-0.336;2023-02-28T11:32:25;3.00;;;0.60;;
77948;SDS011;67146;51.236;-0.336;2023-02-28T11:35:02;4.63;;;0.30;;
77948;SDS011;67146;51.236;-0.336;2023-02-28T11:37:47;6.18;;;0.47;;
77948;SDS011;67146;51.236;-0.336;2023-02-28T11:40:36;3.65;;;0.30;;
77948;SDS011;67146;51.236;-0.336;2023-02-28T11:43:30;2.90;;;0.30;;
77948;SDS011;67146;51.236;-0.336;2023-02-28T11:51:53;4.80;;;0.98;;
77948;SDS011;67146;51.236;-0.336;2023-02-28T12:03:21;3.72;;;0.60;;
77948;SDS011;67146;51.236;-0.336;2023-02-28T12:05:50;5.22;;;0.50;;
77948;SDS011;67146;51.236;-0.336;2023-02-28T12:13:39;3.60;;;0.63;;
77948;SDS011;67146;51.236;-0.336;2023-02-28T12:16:47;3.67;;;0.43;;
77948;SDS011;67146;51.236;-0.336;2023-02-28T12:22:24;3.08;;;0.40;;
77948;SDS011;67146;51.236;-0.336;2023-02-28T12:27:32;4.07;;;0.80;;
77948;SDS011;67146;51.236;-0.336;2023-02-28T12:30:08;3.70;;;0.50;;
77948;SDS011;67146;51.236;-0.336;2023-02-28T12:32:47;4.55;;;0.73;;
77948;SDS011;67146;51.236;-0.336;2023-02-28T12:35:16;3.35;;;0.75;;
77948;SDS011;67146;51.236;-0.336;2023-02-28T12:37:45;6.30;;;0.75;;
77948;SDS011;67146;51.236;-0.336;2023-02-28T12:40:23;4.55;;;0.82;;
77948;SDS011;67146;51.236;-0.336;2023-02-28T12:42:52;4.60;;;0.75;;
77948;SDS011;67146;51.236;-0.336;2023-02-28T12:45:22;4.30;;;0.70;;
77948;SDS011;67146;51.236;-0.336;2023-02-28T12:48:00;5.38;;;0.73;;
77948;SDS011;67146;51.236;-0.336;2023-02-28T12:50:27;4.75;;;1.27;;
77948;SDS011;67146;51.236;-0.336;2023-02-28T12:53:13;4.30;;;0.77;;
77948;SDS011;67146;51.236;-0.336;2023-02-28T12:55:55;5.15;;;1.25;;
77948;SDS011;67146;51.236;-0.336;2023-02-28T12:58:45;4.72;;;0.73;;
77948;SDS011;67146;51.236;-0.336;2023-02-28T13:09:17;5.88;;;1.42;;
77948;SDS011;67146;51.236;-0.336;2023-02-28T13:11:46;5.85;;;1.10;;
77948;SDS011;67146;51.236;-0.336;2023-02-28T13:19:28;5.68;;;0.80;;
77948;SDS011;67146;51.236;-0.336;2023-02-28T13:21:55;4.97;;;0.70;;
77948;SDS011;67146;51.236;-0.336;2023-02-28T13:29:28;3.90;;;0.37;;
77948;SDS011;67146;51.236;-0.336;2023-02-28T13:34:30;5.43;;;1.88;;
77948;SDS011;67146;51.236;-0.336;2023-02-28T13:47:30;22.40;;;2.40;;
77948;SDS011;67146;51.236;-0.336;2023-02-28T13:55:45;7.47;;;1.85;;
77948;SDS011;67146;51.236;-0.336;2023-02-28T13:58:31;7.18;;;1.30;;
77948;SDS011;67146;51.236;-0.336;2023-02-28T14:01:03;4.03;;;1.05;;
77948;SDS011;67146;51.236;-0.336;2023-02-28T14:03:58;7.18;;;1.30;;
77948;SDS011;67146;51.236;-0.336;2023-02-28T14:06:35;3.95;;;0.90;;
77948;SDS011;67146;51.236;-0.336;2023-02-28T14:14:05;6.72;;;1.20;;
77948;SDS011;67146;51.236;-0.336;2023-02-28T14:16:50;5.05;;;1.10;;
77948;SDS011;67146;51.236;-0.336;2023-02-28T14:19:17;4.88;;;1.08;;
77948;SDS011;67146;51.236;-0.336;2023-02-28T14:21:50;5.68;;;1.20;;
77948;SDS011;67146;51.236;-0.336;2023-02-28T14:24:35;5.75;;;0.88;;
77948;SDS011;67146;51.236;-0.336;2023-02-28T14:35:13;5.63;;;0.80;;
77948;SDS011;67146;51.236;-0.336;2023-02-28T14:37:44;5.35;;;0.77;;
77948;SDS011;67146;51.236;-0.336;2023-02-28T14:40:17;4.88;;;0.60;;
77948;SDS011;67146;51.236;-0.336;2023-02-28T14:42:48;4.43;;;0.70;;
77948;SDS011;67146;51.236;-0.336;2023-02-28T14:45:21;4.88;;;0.80;;
77948;SDS011;67146;51.236;-0.336;2023-02-28T14:47:47;5.47;;;0.82;;
77948;SDS011;67146;51.236;-0.336;2023-02-28T14:50:21;3.92;;;0.82;;
77948;SDS011;67146;51.236;-0.336;2023-02-28T14:52:55;5.05;;;0.85;;
77948;SDS011;67146;51.236;-0.336;2023-02-28T14:55:23;4.28;;;0.55;;
77948;SDS011;67146;51.236;-0.336;2023-02-28T14:58:02;5.07;;;0.60;;
77948;SDS011;67146;51.236;-0.336;2023-02-28T15:00:32;6.15;;;0.88;;
77948;SDS011;67146;51.236;-0.336;2023-02-28T15:02:59;3.75;;;0.40;;
77948;SDS011;67146;51.236;-0.336;2023-02-28T15:05:32;3.92;;;0.60;;
77948;SDS011;67146;51.236;-0.336;2023-02-28T15:08:03;3.28;;;0.50;;
77948;SDS011;67146;51.236;-0.336;2023-02-28T15:10:39;5.55;;;0.63;;
77948;SDS011;67146;51.236;-0.336;2023-02-28T15:13:11;2.03;;;0.30;;
77948;SDS011;67146;51.236;-0.336;2023-02-28T15:18:03;3.93;;;0.40;;
77948;SDS011;67146;51.236;-0.336;2023-02-28T15:20:30;3.92;;;0.43;;
77948;SDS011;67146;51.236;-0.336;2023-02-28T15:22:57;3.65;;;0.40;;
77948;SDS011;67146;51.236;-0.336;2023-02-28T15:25:22;3.45;;;0.70;;
77948;SDS011;67146;51.236;-0.336;2023-02-28T15:27:52;6.18;;;1.02;;
77948;SDS011;67146;51.236;-0.336;2023-02-28T15:32:48;5.05;;;1.58;;
77948;SDS011;67146;51.236;-0.336;2023-02-28T15:35:29;13.60;;;2.35;;
77948;SDS011;67146;51.236;-0.336;2023-02-28T15:40:56;7.28;;;1.20;;
77948;SDS011;67146;51.236;-0.336;2023-02-28T15:43:27;2.33;;;0.30;;
77948;SDS011;67146;51.236;-0.336;2023-02-28T15:46:07;6.30;;;1.00;;
77948;SDS011;67146;51.236;-0.336;2023-02-28T15:48:42;7.20;;;1.20;;
77948;SDS011;67146;51.236;-0.336;2023-02-28T15:51:15;3.78;;;0.57;;
77948;SDS011;67146;51.236;-0.336;2023-02-28T15:54:02;5.15;;;0.70;;
77948;SDS011;67146;51.236;-0.336;2023-02-28T15:56:38;3.50;;;0.50;;
77948;SDS011;67146;51.236;-0.336;2023-02-28T15:59:06;4.07;;;0.80;;
77948;SDS011;67146;51.236;-0.336;2023-02-28T16:01:36;4.03;;;0.57;;
77948;SDS011;67146;51.236;-0.336;2023-02-28T16:04:04;7.13;;;0.75;;
77948;SDS011;67146;51.236;-0.336;2023-02-28T16:09:22;6.00;;;1.25;;
77948;SDS011;67146;51.236;-0.336;2023-02-28T16:11:48;7.32;;;0.88;;
77948;SDS011;67146;51.236;-0.336;2023-02-28T16:14:16;3.83;;;1.30;;
77948;SDS011;67146;51.236;-0.336;2023-02-28T16:16:48;5.57;;;1.10;;
77948;SDS011;67146;51.236;-0.336;2023-02-28T16:19:17;7.30;;;1.05;;
77948;SDS011;67146;51.236;-0.336;2023-02-28T16:21:43;4.93;;;0.98;;
77948;SDS011;67146;51.236;-0.336;2023-02-28T16:24:08;4.72;;;0.77;;
77948;SDS011;67146;51.236;-0.336;2023-02-28T16:26:34;4.13;;;0.60;;
77948;SDS011;67146;51.236;-0.336;2023-02-28T16:29:00;12.30;;;3.45;;
77948;SDS011;67146;51.236;-0.336;2023-02-28T16:31:26;9.77;;;2.13;;
77948;SDS011;67146;51.236;-0.336;2023-02-28T16:33:52;3.83;;;0.85;;
77948;SDS011;67146;51.236;-0.336;2023-02-28T16:36:19;10.68;;;2.30;;
77948;SDS011;67146;51.236;-0.336;2023-02-28T16:38:45;8.68;;;2.50;;
77948;SDS011;67146;51.236;-0.336;2023-02-28T16:41:20;6.85;;;1.63;;
77948;SDS011;67146;51.236;-0.336;2023-02-28T16:43:48;14.15;;;1.55;;
77948;SDS011;67146;51.236;-0.336;2023-02-28T16:46:15;16.10;;;1.60;;
77948;SDS011;67146;51.236;-0.336;2023-02-28T16:48:42;3.92;;;0.70;;
77948;SDS011;67146;51.236;-0.336;2023-02-28T16:51:12;3.42;;;0.57;;
77948;SDS011;67146;51.236;-0.336;2023-02-28T16:53:39;15.13;;;2.50;;
77948;SDS011;67146;51.236;-0.336;2023-02-28T16:56:04;9.32;;;1.17;;
77948;SDS011;67146;51.236;-0.336;2023-02-28T16:58:32;8.32;;;1.35;;
77948;SDS011;67146;51.236;-0.336;2023-02-28T17:01:00;7.53;;;0.88;;
77948;SDS011;67146;51.236;-0.336;2023-02-28T17:03:26;5.60;;;0.88;;
77948;SDS011;67146;51.236;-0.336;2023-02-28T17:05:53;58.28;;;6.07;;
77948;SDS011;67146;51.236;-0.336;2023-02-28T17:08:18;5.15;;;0.88;;
77948;SDS011;67146;51.236;-0.336;2023-02-28T17:10:44;4.22;;;0.82;;
77948;SDS011;67146;51.236;-0.336;2023-02-28T17:13:09;7.03;;;1.38;;
77948;SDS011;67146;51.236;-0.336;2023-02-28T17:15:35;5.30;;;1.25;;
77948;SDS011;67146;51.236;-0.336;2023-02-28T17:18:00;5.60;;;1.00;;